sensor_id;sensor_type;location;lat;lon;timestamp;temperature;humidity
70246;SHT30;57637;49.272;8.590;2023-04-03T00:00:56;3.64;74.95
70246;SHT30;57637;49.272;8.590;2023-04-03T00:03:22;3.57;75.09
70246;SHT30;57637;49.272;8.590;2023-04-03T00:05:48;3.56;75.06
70246;SHT30;57637;49.272;8.590;2023-04-03T00:08:13;3.58;74.81
70246;SHT30;57637;49.272;8.590;2023-04-03T00:10:39;3.60;74.48
70246;SHT30;57637;49.272;8.590;2023-04-03T00:13:05;3.56;74.30
70246;SHT30;57637;49.272;8.590;2023-04-03T00:15:32;3.48;75.02
70246;SHT30;57637;49.272;8.590;2023-04-03T00:17:57;3.47;74.85
70246;SHT30;57637;49.272;8.590;2023-04-03T00:20:22;3.46;74.74
70246;SHT30;57637;49.272;8.590;2023-04-03T00:22:48;3.44;74.52
70246;SHT30;57637;49.272;8.590;2023-04-03T00:25:13;3.44;74.72
70246;SHT30;57637;49.272;8.590;2023-04-03T00:27:40;3.38;74.95
70246;SHT30;57637;49.272;8.590;2023-04-03T00:30:06;3.34;75.08
70246;SHT30;57637;49.272;8.590;2023-04-03T00:32:33;3.36;74.66
70246;SHT30;57637;49.272;8.590;2023-04-03T00:34:59;3.31;74.97
70246;SHT30;57637;49.272;8.590;2023-04-03T00:37:24;3.27;75.33
70246;SHT30;57637;49.272;8.590;2023-04-03T00:39:49;3.26;75.32
70246;SHT30;57637;49.272;8.590;2023-04-03T00:42:15;3.33;74.97
70246;SHT30;57637;49.272;8.590;2023-04-03T00:47:07;3.44;73.87
70246;SHT30;57637;49.272;8.590;2023-04-03T00:49:34;3.38;74.24
70246;SHT30;57637;49.272;8.590;2023-04-03T00:52:02;3.38;74.22
70246;SHT30;57637;49.272;8.590;2023-04-03T00:54:28;3.37;74.13
70246;SHT30;57637;49.272;8.590;2023-04-03T00:56:55;3.37;73.94
70246;SHT30;57637;49.272;8.590;2023-04-03T00:59:32;3.44;73.37
70246;SHT30;57637;49.272;8.590;2023-04-03T01:02:00;3.50;72.85
70246;SHT30;57637;49.272;8.590;2023-04-03T01:04:29;3.57;72.13
70246;SHT30;57637;49.272;8.590;2023-04-03T01:07:04;3.60;71.69
70246;SHT30;57637;49.272;8.590;2023-04-03T01:09:35;3.58;71.89
70246;SHT30;57637;49.272;8.590;2023-04-03T01:14:45;3.46;72.59
70246;SHT30;57637;49.272;8.590;2023-04-03T01:17:29;3.48;72.33
70246;SHT30;57637;49.272;8.590;2023-04-03T01:22:59;3.48;72.04
70246;SHT30;57637;49.272;8.590;2023-04-03T01:25:31;3.47;72.39
70246;SHT30;57637;49.272;8.590;2023-04-03T01:27:56;3.40;72.40
70246;SHT30;57637;49.272;8.590;2023-04-03T01:30:24;3.38;72.94
70246;SHT30;57637;49.272;8.590;2023-04-03T01:33:07;3.36;72.86
70246;SHT30;57637;49.272;8.590;2023-04-03T01:35:33;3.31;73.03
70246;SHT30;57637;49.272;8.590;2023-04-03T01:37:58;3.30;72.98
70246;SHT30;57637;49.272;8.590;2023-04-03T01:40:25;3.26;73.31
70246;SHT30;57637;49.272;8.590;2023-04-03T01:42:51;3.27;73.12
70246;SHT30;57637;49.272;8.590;2023-04-03T01:45:16;3.17;73.74
70246;SHT30;57637;49.272;8.590;2023-04-03T01:47:42;3.22;73.31
70246;SHT30;57637;49.272;8.590;2023-04-03T01:50:07;3.19;73.36
70246;SHT30;57637;49.272;8.590;2023-04-03T01:52:33;3.16;73.48
70246;SHT30;57637;49.272;8.590;2023-04-03T01:54:59;3.13;73.85
70246;SHT30;57637;49.272;8.590;2023-04-03T01:57:25;3.07;74.00
70246;SHT30;57637;49.272;8.590;2023-04-03T01:59:50;3.07;74.16
70246;SHT30;57637;49.272;8.590;2023-04-03T02:02:16;3.02;74.41
70246;SHT30;57637;49.272;8.590;2023-04-03T02:04:41;3.00;74.68
70246;SHT30;57637;49.272;8.590;2023-04-03T02:07:07;3.04;74.20
70246;SHT30;57637;49.272;8.590;2023-04-03T02:09:32;3.10;73.66
70246;SHT30;57637;49.272;8.590;2023-04-03T02:11:58;3.10;73.85
70246;SHT30;57637;49.272;8.590;2023-04-03T02:14:23;3.13;73.59
70246;SHT30;57637;49.272;8.590;2023-04-03T02:16:49;3.13;73.50
70246;SHT30;57637;49.272;8.590;2023-04-03T02:19:15;3.12;73.67
70246;SHT30;57637;49.272;8.590;2023-04-03T02:21:40;3.16;73.44
70246;SHT30;57637;49.272;8.590;2023-04-03T02:24:06;3.13;73.59
70246;SHT30;57637;49.272;8.590;2023-04-03T02:26:32;3.13;73.74
70246;SHT30;57637;49.272;8.590;2023-04-03T02:28:57;3.13;73.84
70246;SHT30;57637;49.272;8.590;2023-04-03T02:31:23;3.17;73.43
70246;SHT30;57637;49.272;8.590;2023-04-03T02:33:49;3.13;73.92
70246;SHT30;57637;49.272;8.590;2023-04-03T02:36:14;3.14;73.93
70246;SHT30;57637;49.272;8.590;2023-04-03T02:38:39;3.12;74.10
70246;SHT30;57637;49.272;8.590;2023-04-03T02:41:06;3.10;74.27
70246;SHT30;57637;49.272;8.590;2023-04-03T02:43:33;3.09;74.46
70246;SHT30;57637;49.272;8.590;2023-04-03T02:45:58;3.04;74.89
70246;SHT30;57637;49.272;8.590;2023-04-03T02:48:24;3.03;74.75
70246;SHT30;57637;49.272;8.590;2023-04-03T02:50:50;3.02;74.77
70246;SHT30;57637;49.272;8.590;2023-04-03T02:53:15;3.00;74.89
70246;SHT30;57637;49.272;8.590;2023-04-03T02:55:41;3.02;75.09
70246;SHT30;57637;49.272;8.590;2023-04-03T02:58:07;3.06;74.40
70246;SHT30;57637;49.272;8.590;2023-04-03T03:00:32;3.04;74.19
70246;SHT30;57637;49.272;8.590;2023-04-03T03:02:58;3.04;74.47
70246;SHT30;57637;49.272;8.590;2023-04-03T03:05:24;3.04;74.26
70246;SHT30;57637;49.272;8.590;2023-04-03T03:07:49;3.00;74.74
70246;SHT30;57637;49.272;8.590;2023-04-03T03:10:15;3.02;74.29
70246;SHT30;57637;49.272;8.590;2023-04-03T03:12:40;3.09;74.03
70246;SHT30;57637;49.272;8.590;2023-04-03T03:15:06;3.10;73.59
70246;SHT30;57637;49.272;8.590;2023-04-03T03:17:32;3.10;73.84
70246;SHT30;57637;49.272;8.590;2023-04-03T03:19:57;3.12;73.86
70246;SHT30;57637;49.272;8.590;2023-04-03T03:22:22;3.13;73.82
70246;SHT30;57637;49.272;8.590;2023-04-03T03:24:48;3.14;73.87
70246;SHT30;57637;49.272;8.590;2023-04-03T03:27:13;3.16;73.47
70246;SHT30;57637;49.272;8.590;2023-04-03T03:29:39;3.19;73.56
70246;SHT30;57637;49.272;8.590;2023-04-03T03:32:04;3.28;72.97
70246;SHT30;57637;49.272;8.590;2023-04-03T03:34:29;3.31;72.47
70246;SHT30;57637;49.272;8.590;2023-04-03T03:36:55;3.28;72.46
70246;SHT30;57637;49.272;8.590;2023-04-03T03:39:20;3.36;71.49
70246;SHT30;57637;49.272;8.590;2023-04-03T03:41:46;3.37;71.27
70246;SHT30;57637;49.272;8.590;2023-04-03T03:44:12;3.38;71.07
70246;SHT30;57637;49.272;8.590;2023-04-03T03:46:37;3.40;71.35
70246;SHT30;57637;49.272;8.590;2023-04-03T03:49:03;3.31;71.73
70246;SHT30;57637;49.272;8.590;2023-04-03T03:51:28;3.20;72.27
70246;SHT30;57637;49.272;8.590;2023-04-03T03:53:53;3.20;72.39
70246;SHT30;57637;49.272;8.590;2023-04-03T03:56:19;3.13;72.90
70246;SHT30;57637;49.272;8.590;2023-04-03T03:58:45;3.04;73.09
70246;SHT30;57637;49.272;8.590;2023-04-03T04:01:10;2.99;73.28
70246;SHT30;57637;49.272;8.590;2023-04-03T04:03:36;2.96;73.46
70246;SHT30;57637;49.272;8.590;2023-04-03T04:06:02;2.91;73.58
70246;SHT30;57637;49.272;8.590;2023-04-03T04:08:27;2.85;74.14
70246;SHT30;57637;49.272;8.590;2023-04-03T04:10:52;2.89;74.62
70246;SHT30;57637;49.272;8.590;2023-04-03T04:13:18;2.78;74.37
70246;SHT30;57637;49.272;8.590;2023-04-03T04:15:43;2.76;74.19
70246;SHT30;57637;49.272;8.590;2023-04-03T04:18:09;2.68;74.48
70246;SHT30;57637;49.272;8.590;2023-04-03T04:20:34;2.62;74.58
70246;SHT30;57637;49.272;8.590;2023-04-03T04:23:00;2.51;75.25
70246;SHT30;57637;49.272;8.590;2023-04-03T04:25:25;2.37;75.94
70246;SHT30;57637;49.272;8.590;2023-04-03T04:27:50;2.30;76.39
70246;SHT30;57637;49.272;8.590;2023-04-03T04:30:16;2.17;76.69
70246;SHT30;57637;49.272;8.590;2023-04-03T04:32:41;2.10;77.29
70246;SHT30;57637;49.272;8.590;2023-04-03T04:35:06;2.00;77.29
70246;SHT30;57637;49.272;8.590;2023-04-03T04:37:32;1.91;77.43
70246;SHT30;57637;49.272;8.590;2023-04-03T04:39:58;1.84;77.79
70246;SHT30;57637;49.272;8.590;2023-04-03T04:42:23;1.80;77.87
70246;SHT30;57637;49.272;8.590;2023-04-03T04:44:48;1.83;78.15
70246;SHT30;57637;49.272;8.590;2023-04-03T04:47:14;1.77;78.20
70246;SHT30;57637;49.272;8.590;2023-04-03T04:49:39;1.77;78.23
70246;SHT30;57637;49.272;8.590;2023-04-03T04:52:05;1.74;78.63
70246;SHT30;57637;49.272;8.590;2023-04-03T04:54:31;1.66;78.79
70246;SHT30;57637;49.272;8.590;2023-04-03T04:56:57;1.70;78.97
70246;SHT30;57637;49.272;8.590;2023-04-03T04:59:22;1.66;79.16
70246;SHT30;57637;49.272;8.590;2023-04-03T05:01:50;1.62;79.24
70246;SHT30;57637;49.272;8.590;2023-04-03T05:04:16;1.60;79.30
70246;SHT30;57637;49.272;8.590;2023-04-03T05:06:41;1.62;79.33
70246;SHT30;57637;49.272;8.590;2023-04-03T05:09:06;1.58;79.46
70246;SHT30;57637;49.272;8.590;2023-04-03T05:11:32;1.63;79.62
70246;SHT30;57637;49.272;8.590;2023-04-03T05:13:58;1.63;79.63
70246;SHT30;57637;49.272;8.590;2023-04-03T05:16:23;1.64;79.93
70246;SHT30;57637;49.272;8.590;2023-04-03T05:18:48;1.69;79.82
70246;SHT30;57637;49.272;8.590;2023-04-03T05:21:14;1.74;79.74
70246;SHT30;57637;49.272;8.590;2023-04-03T05:23:39;1.76;79.70
70246;SHT30;57637;49.272;8.590;2023-04-03T05:26:05;1.80;79.65
70246;SHT30;57637;49.272;8.590;2023-04-03T05:28:30;1.84;79.61
70246;SHT30;57637;49.272;8.590;2023-04-03T05:30:56;1.96;79.63
70246;SHT30;57637;49.272;8.590;2023-04-03T05:33:23;1.99;79.73
70246;SHT30;57637;49.272;8.590;2023-04-03T05:35:49;1.96;79.58
70246;SHT30;57637;49.272;8.590;2023-04-03T05:38:15;1.91;79.43
70246;SHT30;57637;49.272;8.590;2023-04-03T05:40:41;2.01;79.17
70246;SHT30;57637;49.272;8.590;2023-04-03T05:43:06;2.22;78.55
70246;SHT30;57637;49.272;8.590;2023-04-03T05:45:32;2.32;78.30
70246;SHT30;57637;49.272;8.590;2023-04-03T05:47:57;2.56;77.49
70246;SHT30;57637;49.272;8.590;2023-04-03T05:50:22;2.56;78.22
70246;SHT30;57637;49.272;8.590;2023-04-03T05:52:48;2.69;77.42
70246;SHT30;57637;49.272;8.590;2023-04-03T05:55:16;2.85;77.59
70246;SHT30;57637;49.272;8.590;2023-04-03T05:57:42;3.19;76.28
70246;SHT30;57637;49.272;8.590;2023-04-03T06:00:07;3.38;75.75
70246;SHT30;57637;49.272;8.590;2023-04-03T06:02:34;3.97;74.34
70246;SHT30;57637;49.272;8.590;2023-04-03T06:05:00;4.59;72.32
70246;SHT30;57637;49.272;8.590;2023-04-03T06:07:26;4.56;70.38
70246;SHT30;57637;49.272;8.590;2023-04-03T06:09:53;4.45;71.01
70246;SHT30;57637;49.272;8.590;2023-04-03T06:12:21;4.46;71.96
70246;SHT30;57637;49.272;8.590;2023-04-03T06:14:48;4.49;71.26
70246;SHT30;57637;49.272;8.590;2023-04-03T06:17:26;4.16;72.00
70246;SHT30;57637;49.272;8.590;2023-04-03T06:19:52;4.43;70.92
70246;SHT30;57637;49.272;8.590;2023-04-03T06:22:17;4.26;70.96
70246;SHT30;57637;49.272;8.590;2023-04-03T06:24:43;4.43;71.20
70246;SHT30;57637;49.272;8.590;2023-04-03T06:27:09;4.60;70.69
70246;SHT30;57637;49.272;8.590;2023-04-03T06:29:35;4.63;71.05
70246;SHT30;57637;49.272;8.590;2023-04-03T06:32:02;4.98;70.08
70246;SHT30;57637;49.272;8.590;2023-04-03T06:34:27;4.95;69.79
70246;SHT30;57637;49.272;8.590;2023-04-03T06:36:52;5.41;69.11
70246;SHT30;57637;49.272;8.590;2023-04-03T06:39:19;5.24;70.21
70246;SHT30;57637;49.272;8.590;2023-04-03T06:41:47;5.97;68.26
70246;SHT30;57637;49.272;8.590;2023-04-03T06:44:13;6.26;67.53
70246;SHT30;57637;49.272;8.590;2023-04-03T06:46:40;5.48;69.37
70246;SHT30;57637;49.272;8.590;2023-04-03T06:49:06;5.35;69.93
70246;SHT30;57637;49.272;8.590;2023-04-03T06:51:35;5.70;69.91
70246;SHT30;57637;49.272;8.590;2023-04-03T06:54:01;6.00;69.02
70246;SHT30;57637;49.272;8.590;2023-04-03T06:56:28;6.57;68.45
70246;SHT30;57637;49.272;8.590;2023-04-03T06:58:54;6.16;68.77
70246;SHT30;57637;49.272;8.590;2023-04-03T07:01:23;6.06;69.65
70246;SHT30;57637;49.272;8.590;2023-04-03T07:03:51;5.67;70.78
70246;SHT30;57637;49.272;8.590;2023-04-03T07:06:17;5.86;70.83
70246;SHT30;57637;49.272;8.590;2023-04-03T07:08:44;5.79;70.87
70246;SHT30;57637;49.272;8.590;2023-04-03T07:11:11;5.89;70.14
70246;SHT30;57637;49.272;8.590;2023-04-03T07:13:37;6.27;69.39
70246;SHT30;57637;49.272;8.590;2023-04-03T07:16:03;5.99;70.39
70246;SHT30;57637;49.272;8.590;2023-04-03T07:18:30;5.85;71.06
70246;SHT30;57637;49.272;8.590;2023-04-03T07:20:56;5.66;70.85
70246;SHT30;57637;49.272;8.590;2023-04-03T07:23:22;6.16;70.83
70246;SHT30;57637;49.272;8.590;2023-04-03T07:25:48;5.92;70.15
70246;SHT30;57637;49.272;8.590;2023-04-03T07:28:15;5.83;70.17
70246;SHT30;57637;49.272;8.590;2023-04-03T07:30:51;5.99;70.21
70246;SHT30;57637;49.272;8.590;2023-04-03T07:33:35;6.00;69.45
70246;SHT30;57637;49.272;8.590;2023-04-03T07:36:02;6.33;68.74
70246;SHT30;57637;49.272;8.590;2023-04-03T07:38:28;5.95;69.88
70246;SHT30;57637;49.272;8.590;2023-04-03T07:40:54;6.42;69.43
70246;SHT30;57637;49.272;8.590;2023-04-03T07:43:19;6.42;67.85
70246;SHT30;57637;49.272;8.590;2023-04-03T07:45:47;6.30;67.65
70246;SHT30;57637;49.272;8.590;2023-04-03T07:48:17;5.96;68.13
70246;SHT30;57637;49.272;8.590;2023-04-03T07:50:43;6.45;67.95
70246;SHT30;57637;49.272;8.590;2023-04-03T07:53:09;6.67;67.37
70246;SHT30;57637;49.272;8.590;2023-04-03T07:55:34;6.67;66.13
70246;SHT30;57637;49.272;8.590;2023-04-03T07:58:07;6.11;66.65
70246;SHT30;57637;49.272;8.590;2023-04-03T08:00:38;6.48;66.06
70246;SHT30;57637;49.272;8.590;2023-04-03T08:03:04;6.45;65.22
70246;SHT30;57637;49.272;8.590;2023-04-03T08:05:30;6.79;63.84
70246;SHT30;57637;49.272;8.590;2023-04-03T08:07:56;6.78;63.31
70246;SHT30;57637;49.272;8.590;2023-04-03T08:10:21;6.91;62.24
70246;SHT30;57637;49.272;8.590;2023-04-03T08:12:47;6.84;62.09
70246;SHT30;57637;49.272;8.590;2023-04-03T08:15:12;6.67;63.31
70246;SHT30;57637;49.272;8.590;2023-04-03T08:17:38;6.51;62.54
70246;SHT30;57637;49.272;8.590;2023-04-03T08:20:04;6.69;61.66
70246;SHT30;57637;49.272;8.590;2023-04-03T08:22:31;6.63;61.42
70246;SHT30;57637;49.272;8.590;2023-04-03T08:24:57;6.82;61.80
70246;SHT30;57637;49.272;8.590;2023-04-03T08:27:22;6.87;61.46
70246;SHT30;57637;49.272;8.590;2023-04-03T08:29:48;6.84;61.05
70246;SHT30;57637;49.272;8.590;2023-04-03T08:32:13;7.05;60.95
70246;SHT30;57637;49.272;8.590;2023-04-03T08:34:38;6.93;60.78
70246;SHT30;57637;49.272;8.590;2023-04-03T08:37:04;6.64;61.57
70246;SHT30;57637;49.272;8.590;2023-04-03T08:39:31;6.89;62.21
70246;SHT30;57637;49.272;8.590;2023-04-03T08:41:57;6.63;61.30
70246;SHT30;57637;49.272;8.590;2023-04-03T08:47:09;6.69;62.70
70246;SHT30;57637;49.272;8.590;2023-04-03T08:52:15;6.55;61.78
70246;SHT30;57637;49.272;8.590;2023-04-03T08:57:45;6.21;61.34
70246;SHT30;57637;49.272;8.590;2023-04-03T09:02:52;6.13;61.39
70246;SHT30;57637;49.272;8.590;2023-04-03T09:05:22;6.30;61.14
70246;SHT30;57637;49.272;8.590;2023-04-03T09:10:27;6.42;61.10
70246;SHT30;57637;49.272;8.590;2023-04-03T09:12:59;6.38;61.07
70246;SHT30;57637;49.272;8.590;2023-04-03T09:15:32;6.65;60.26
70246;SHT30;57637;49.272;8.590;2023-04-03T09:18:19;6.30;60.51
70246;SHT30;57637;49.272;8.590;2023-04-03T09:23:22;6.36;61.37
70246;SHT30;57637;49.272;8.590;2023-04-03T09:26:05;6.26;60.23
70246;SHT30;57637;49.272;8.590;2023-04-03T09:28:37;6.30;60.44
70246;SHT30;57637;49.272;8.590;2023-04-03T09:31:38;6.28;60.02
70246;SHT30;57637;49.272;8.590;2023-04-03T09:34:06;6.24;60.70
70246;SHT30;57637;49.272;8.590;2023-04-03T09:36:40;6.34;60.77
70246;SHT30;57637;49.272;8.590;2023-04-03T09:39:17;6.44;60.11
70246;SHT30;57637;49.272;8.590;2023-04-03T09:42:13;6.42;60.27
70246;SHT30;57637;49.272;8.590;2023-04-03T09:44:57;6.63;60.54
70246;SHT30;57637;49.272;8.590;2023-04-03T09:47:29;6.77;60.67
70246;SHT30;57637;49.272;8.590;2023-04-03T09:52:46;6.91;58.88
70246;SHT30;57637;49.272;8.590;2023-04-03T09:55:25;6.91;58.05
70246;SHT30;57637;49.272;8.590;2023-04-03T09:57:54;6.87;57.97
70246;SHT30;57637;49.272;8.590;2023-04-03T10:00:36;6.98;58.07
70246;SHT30;57637;49.272;8.590;2023-04-03T10:03:04;6.91;56.75
70246;SHT30;57637;49.272;8.590;2023-04-03T10:05:35;6.98;57.98
70246;SHT30;57637;49.272;8.590;2023-04-03T10:11:05;7.10;55.76
70246;SHT30;57637;49.272;8.590;2023-04-03T10:13:51;6.99;55.59
70246;SHT30;57637;49.272;8.590;2023-04-03T10:16:23;7.19;56.57
70246;SHT30;57637;49.272;8.590;2023-04-03T10:18:58;7.23;54.91
70246;SHT30;57637;49.272;8.590;2023-04-03T10:21:36;7.40;54.13
70246;SHT30;57637;49.272;8.590;2023-04-03T10:24:18;7.46;52.44
70246;SHT30;57637;49.272;8.590;2023-04-03T10:26:52;7.95;51.03
70246;SHT30;57637;49.272;8.590;2023-04-03T10:35:15;8.15;48.38
70246;SHT30;57637;49.272;8.590;2023-04-03T10:43:43;8.02;48.01
70246;SHT30;57637;49.272;8.590;2023-04-03T10:46:23;8.14;48.37
70246;SHT30;57637;49.272;8.590;2023-04-03T10:51:45;7.85;48.98
70246;SHT30;57637;49.272;8.590;2023-04-03T10:56:57;8.41;50.40
70246;SHT30;57637;49.272;8.590;2023-04-03T10:59:38;8.14;48.27
70246;SHT30;57637;49.272;8.590;2023-04-03T11:04:37;7.87;50.27
70246;SHT30;57637;49.272;8.590;2023-04-03T11:07:15;7.69;49.70
70246;SHT30;57637;49.272;8.590;2023-04-03T11:09:46;8.05;49.19
70246;SHT30;57637;49.272;8.590;2023-04-03T11:12:21;8.02;48.95
70246;SHT30;57637;49.272;8.590;2023-04-03T11:14:52;7.97;50.30
70246;SHT30;57637;49.272;8.590;2023-04-03T11:17:23;8.04;49.53
70246;SHT30;57637;49.272;8.590;2023-04-03T11:19:52;7.73;51.54
70246;SHT30;57637;49.272;8.590;2023-04-03T11:22:33;7.80;51.17
70246;SHT30;57637;49.272;8.590;2023-04-03T11:30:33;8.08;48.67
70246;SHT30;57637;49.272;8.590;2023-04-03T11:33:36;8.36;50.31
70246;SHT30;57637;49.272;8.590;2023-04-03T11:36:06;8.14;50.09
70246;SHT30;57637;49.272;8.590;2023-04-03T11:38:43;8.38;51.47
70246;SHT30;57637;49.272;8.590;2023-04-03T11:41:11;8.32;50.66
70246;SHT30;57637;49.272;8.590;2023-04-03T11:43:42;8.21;50.12
70246;SHT30;57637;49.272;8.590;2023-04-03T11:46:48;8.14;50.60
70246;SHT30;57637;49.272;8.590;2023-04-03T11:52:53;7.93;50.74
70246;SHT30;57637;49.272;8.590;2023-04-03T12:05:49;7.83;52.11
70246;SHT30;57637;49.272;8.590;2023-04-03T12:13:37;7.87;51.50
70246;SHT30;57637;49.272;8.590;2023-04-03T12:26:26;7.87;51.74
70246;SHT30;57637;49.272;8.590;2023-04-03T12:28:57;8.01;51.55
70246;SHT30;57637;49.272;8.590;2023-04-03T12:31:24;7.98;51.25
70246;SHT30;57637;49.272;8.590;2023-04-03T12:34:07;7.62;50.78
70246;SHT30;57637;49.272;8.590;2023-04-03T12:36:54;8.09;49.79
70246;SHT30;57637;49.272;8.590;2023-04-03T12:40:14;8.50;49.76
70246;SHT30;57637;49.272;8.590;2023-04-03T12:45:13;8.04;51.09
70246;SHT30;57637;49.272;8.590;2023-04-03T12:47:44;7.98;51.23
70246;SHT30;57637;49.272;8.590;2023-04-03T12:55:29;8.21;50.40
70246;SHT30;57637;49.272;8.590;2023-04-03T12:57:55;8.02;51.17
70246;SHT30;57637;49.272;8.590;2023-04-03T13:02:46;8.08;51.39
70246;SHT30;57637;49.272;8.590;2023-04-03T13:05:18;8.24;51.81
70246;SHT30;57637;49.272;8.590;2023-04-03T13:08:05;8.05;50.39
70246;SHT30;57637;49.272;8.590;2023-04-03T13:10:43;8.36;51.86
70246;SHT30;57637;49.272;8.590;2023-04-03T13:13:21;8.20;49.56
70246;SHT30;57637;49.272;8.590;2023-04-03T13:15:48;8.22;50.32
70246;SHT30;57637;49.272;8.590;2023-04-03T13:18:25;8.36;49.80
70246;SHT30;57637;49.272;8.590;2023-04-03T13:20:53;8.20;49.62
70246;SHT30;57637;49.272;8.590;2023-04-03T13:23:26;8.12;50.83
70246;SHT30;57637;49.272;8.590;2023-04-03T13:25:51;7.98;50.19
70246;SHT30;57637;49.272;8.590;2023-04-03T13:28:19;8.18;49.49
70246;SHT30;57637;49.272;8.590;2023-04-03T13:33:27;8.12;48.69
70246;SHT30;57637;49.272;8.590;2023-04-03T13:36:16;8.09;48.97
70246;SHT30;57637;49.272;8.590;2023-04-03T13:38:45;8.34;49.24
70246;SHT30;57637;49.272;8.590;2023-04-03T13:41:24;8.38;49.03
70246;SHT30;57637;49.272;8.590;2023-04-03T13:43:53;8.62;49.72
70246;SHT30;57637;49.272;8.590;2023-04-03T13:48:46;8.22;50.79
70246;SHT30;57637;49.272;8.590;2023-04-03T13:53:49;7.93;51.24
70246;SHT30;57637;49.272;8.590;2023-04-03T13:56:25;8.05;54.20
70246;SHT30;57637;49.272;8.590;2023-04-03T14:01:41;8.02;50.57
70246;SHT30;57637;49.272;8.590;2023-04-03T14:04:13;7.99;49.93
70246;SHT30;57637;49.272;8.590;2023-04-03T14:06:47;8.29;47.59
70246;SHT30;57637;49.272;8.590;2023-04-03T14:09:15;8.57;47.38
70246;SHT30;57637;49.272;8.590;2023-04-03T14:11:41;8.86;47.75
70246;SHT30;57637;49.272;8.590;2023-04-03T14:14:41;9.24;48.15
70246;SHT30;57637;49.272;8.590;2023-04-03T14:17:02;8.67;46.81
70246;SHT30;57637;49.272;8.590;2023-04-03T14:19:35;8.59;46.67
70246;SHT30;57637;49.272;8.590;2023-04-03T14:22:05;8.89;47.45
70246;SHT30;57637;49.272;8.590;2023-04-03T14:24:48;9.03;46.63
70246;SHT30;57637;49.272;8.590;2023-04-03T14:27:18;8.77;46.68
70246;SHT30;57637;49.272;8.590;2023-04-03T14:29:56;8.79;47.50
70246;SHT30;57637;49.272;8.590;2023-04-03T14:32:23;8.67;47.81
70246;SHT30;57637;49.272;8.590;2023-04-03T14:34:50;8.36;48.01
70246;SHT30;57637;49.272;8.590;2023-04-03T14:37:17;8.11;48.04
70246;SHT30;57637;49.272;8.590;2023-04-03T14:39:45;8.09;48.01
70246;SHT30;57637;49.272;8.590;2023-04-03T14:42:16;8.29;46.53
70246;SHT30;57637;49.272;8.590;2023-04-03T14:44:44;8.55;46.88
70246;SHT30;57637;49.272;8.590;2023-04-03T14:47:11;8.76;45.96
70246;SHT30;57637;49.272;8.590;2023-04-03T14:49:38;8.83;45.80
70246;SHT30;57637;49.272;8.590;2023-04-03T14:52:04;8.65;45.73
70246;SHT30;57637;49.272;8.590;2023-04-03T14:54:29;8.34;45.39
70246;SHT30;57637;49.272;8.590;2023-04-03T14:56:56;8.16;45.10
70246;SHT30;57637;49.272;8.590;2023-04-03T14:59:30;8.48;46.13
70246;SHT30;57637;49.272;8.590;2023-04-03T15:01:57;8.46;45.34
70246;SHT30;57637;49.272;8.590;2023-04-03T15:04:23;8.32;44.70
70246;SHT30;57637;49.272;8.590;2023-04-03T15:32:48;8.52;45.77
70246;SHT30;57637;49.272;8.590;2023-04-03T15:35:14;8.34;44.56
70246;SHT30;57637;49.272;8.590;2023-04-03T15:37:40;8.34;43.59
70246;SHT30;57637;49.272;8.590;2023-04-03T15:40:05;8.29;43.65
70246;SHT30;57637;49.272;8.590;2023-04-03T15:42:32;8.52;44.17
70246;SHT30;57637;49.272;8.590;2023-04-03T15:44:58;8.60;43.87
70246;SHT30;57637;49.272;8.590;2023-04-03T15:47:24;8.65;43.04
70246;SHT30;57637;49.272;8.590;2023-04-03T15:49:50;8.69;44.03
70246;SHT30;57637;49.272;8.590;2023-04-03T15:52:15;8.59;44.21
70246;SHT30;57637;49.272;8.590;2023-04-03T15:54:41;8.41;44.08
70246;SHT30;57637;49.272;8.590;2023-04-03T15:57:07;8.53;44.89
70246;SHT30;57637;49.272;8.590;2023-04-03T15:59:32;8.39;44.25
70246;SHT30;57637;49.272;8.590;2023-04-03T16:01:58;8.32;43.85
70246;SHT30;57637;49.272;8.590;2023-04-03T16:04:26;8.34;43.85
70246;SHT30;57637;49.272;8.590;2023-04-03T16:06:52;8.32;44.89
70246;SHT30;57637;49.272;8.590;2023-04-03T16:09:17;8.28;44.62
70246;SHT30;57637;49.272;8.590;2023-04-03T16:11:43;8.20;44.51
70246;SHT30;57637;49.272;8.590;2023-04-03T16:14:11;8.26;44.62
70246;SHT30;57637;49.272;8.590;2023-04-03T16:16:37;8.32;45.08
70246;SHT30;57637;49.272;8.590;2023-04-03T16:19:03;8.41;45.60
70246;SHT30;57637;49.272;8.590;2023-04-03T16:21:29;8.41;46.18
70246;SHT30;57637;49.272;8.590;2023-04-03T16:23:57;8.36;44.72
70246;SHT30;57637;49.272;8.590;2023-04-03T16:26:23;8.38;44.74
70246;SHT30;57637;49.272;8.590;2023-04-03T16:28:49;8.18;44.45
70246;SHT30;57637;49.272;8.590;2023-04-03T16:31:14;8.12;45.02
70246;SHT30;57637;49.272;8.590;2023-04-03T16:33:40;8.11;45.23
70246;SHT30;57637;49.272;8.590;2023-04-03T16:36:05;8.14;45.23
70246;SHT30;57637;49.272;8.590;2023-04-03T16:38:31;8.08;43.25
70246;SHT30;57637;49.272;8.590;2023-04-03T16:40:57;8.05;43.49
70246;SHT30;57637;49.272;8.590;2023-04-03T16:43:24;7.99;43.68
70246;SHT30;57637;49.272;8.590;2023-04-03T16:45:50;8.05;44.37
70246;SHT30;57637;49.272;8.590;2023-04-03T16:48:16;8.02;44.44
70246;SHT30;57637;49.272;8.590;2023-04-03T16:50:41;7.95;44.67
70246;SHT30;57637;49.272;8.590;2023-04-03T16:53:06;7.85;43.77
70246;SHT30;57637;49.272;8.590;2023-04-03T16:55:35;7.75;43.94
70246;SHT30;57637;49.272;8.590;2023-04-03T16:58:00;7.71;43.55
70246;SHT30;57637;49.272;8.590;2023-04-03T17:00:27;7.64;44.36
70246;SHT30;57637;49.272;8.590;2023-04-03T17:02:55;7.62;45.35
70246;SHT30;57637;49.272;8.590;2023-04-03T17:05:20;7.63;44.47
70246;SHT30;57637;49.272;8.590;2023-04-03T17:07:46;7.62;44.42
70246;SHT30;57637;49.272;8.590;2023-04-03T17:10:11;7.57;43.98
70246;SHT30;57637;49.272;8.590;2023-04-03T17:12:38;7.56;44.71
70246;SHT30;57637;49.272;8.590;2023-04-03T17:15:03;7.46;45.33
70246;SHT30;57637;49.272;8.590;2023-04-03T17:17:29;7.42;44.83
70246;SHT30;57637;49.272;8.590;2023-04-03T17:19:54;7.37;45.21
70246;SHT30;57637;49.272;8.590;2023-04-03T17:22:20;7.29;45.90
70246;SHT30;57637;49.272;8.590;2023-04-03T17:24:45;7.19;44.31
70246;SHT30;57637;49.272;8.590;2023-04-03T17:27:11;7.18;44.86
70246;SHT30;57637;49.272;8.590;2023-04-03T17:29:36;7.06;45.43
70246;SHT30;57637;49.272;8.590;2023-04-03T17:32:02;7.01;46.16
70246;SHT30;57637;49.272;8.590;2023-04-03T17:34:27;6.91;46.37
70246;SHT30;57637;49.272;8.590;2023-04-03T17:36:53;6.89;45.65
70246;SHT30;57637;49.272;8.590;2023-04-03T17:39:18;6.81;46.16
70246;SHT30;57637;49.272;8.590;2023-04-03T17:41:43;6.77;46.37
70246;SHT30;57637;49.272;8.590;2023-04-03T17:44:10;6.72;46.36
70246;SHT30;57637;49.272;8.590;2023-04-03T17:46:35;6.69;46.02
70246;SHT30;57637;49.272;8.590;2023-04-03T17:49:01;6.59;46.95
70246;SHT30;57637;49.272;8.590;2023-04-03T17:51:27;6.61;46.24
70246;SHT30;57637;49.272;8.590;2023-04-03T17:53:53;6.52;46.36
70246;SHT30;57637;49.272;8.590;2023-04-03T17:56:23;6.45;46.54
70246;SHT30;57637;49.272;8.590;2023-04-03T17:58:51;6.47;46.77
70246;SHT30;57637;49.272;8.590;2023-04-03T18:03:48;6.34;47.28
70246;SHT30;57637;49.272;8.590;2023-04-03T18:06:17;6.31;47.32